Airport View

Enter AWOS ICAO identifier for current METAR.

ex. KFNL

KPEA 191335Z AUTO 28007KT 10SM BKN013 15/14 A2960 RMK AO2 T01500142

19 May 2019 13:36

Frequency: 118.875

Phone: 641-628-3459

Other Area AWOS: KOXV - KTNU - KGGI - KOOA

TAF AMD KOTM 191252Z 1913/2012 24008KT P6SM -RA SCT011 BKN017 BKN035 FM191500 27015KT P6SM VCSH BKN030 FM200100 30016G24KT P6SM BKN025 FM200500 31012KT P6SM BKN035 FM201100 33012KT P6SM SCT080